Time;durP1;ratioP1;P1;durP2;ratioP2;P2;SDS_P1;SDS_P2;PMS_P1;PMS_P2;Temp;Humidity;BMP_temperature;BMP_pressure;BME280_temperature;BME280_humidity;BME280_pressure;Samples;Min_cycle;Max_cycle;Signal;HPM_P1;HPM_P2
2022/08/22 00:02:12;;;;;;;0.30;0.30;;;;;;;;;;4149425;28;20453;-40
2022/08/22 00:04:34;;;;;;;1.20;0.20;;;;;;;;;;4147981;28;20512;-40
2022/08/22 00:06:50;;;;;;;0.77;0.30;;;;;;;;;;4148831;28;20104;-42
2022/08/22 00:09:20;;;;;;;0.20;0.20;;;;;;;;;;4147373;28;20058;-41
2022/08/22 00:11:42;;;;;;;0.43;0.40;;;;;;;;;;4147832;28;20112;-41
2022/08/22 00:13:46;;;;;;;0.28;0.20;;;;;;;;;;4146968;28;20061;-40
2022/08/22 00:16:02;;;;;;;0.13;0.13;;;;;;;;;;4162212;28;20425;-41
2022/08/22 00:18:15;;;;;;;0.50;0.22;;;;;;;;;;4162261;28;20057;-40
2022/08/22 00:20:25;;;;;;;0.20;0.20;;;;;;;;;;4162004;28;20135;-41
2022/08/22 00:22:53;;;;;;;0.30;0.25;;;;;;;;;;4147337;28;20057;-41
2022/08/22 00:25:17;;;;;;;0.40;0.30;;;;;;;;;;4145781;28;20061;-41
2022/08/22 00:27:26;;;;;;;0.43;0.40;;;;;;;;;;4146902;28;20053;-41
2022/08/22 00:29:50;;;;;;;0.43;0.25;;;;;;;;;;4147567;28;20092;-41
2022/08/22 00:32:15;;;;;;;0.52;0.30;;;;;;;;;;4161885;28;20057;-41
2022/08/22 00:34:42;;;;;;;0.20;0.20;;;;;;;;;;4161921;28;20099;-41
2022/08/22 00:37:02;;;;;;;0.25;0.20;;;;;;;;;;4145302;28;20493;-41
2022/08/22 00:39:27;;;;;;;;;;;;;;;;;;4146128;28;20096;-42
2022/08/22 00:42:09;;;;;;;0.47;0.22;;;;;;;;;;4144028;28;20304;-40
2022/08/22 00:44:55;;;;;;;0.40;0.30;;;;;;;;;;4143832;28;20054;-40
2022/08/22 00:47:23;;;;;;;0.50;0.20;;;;;;;;;;4146143;28;20049;-41
2022/08/22 00:49:40;;;;;;;0.25;0.25;;;;;;;;;;4151237;28;20119;-41
2022/08/22 00:51:53;;;;;;;0.50;0.32;;;;;;;;;;4163241;28;20122;-40
2022/08/22 00:54:28;;;;;;;0.30;0.30;;;;;;;;;;4163252;28;20102;-40
2022/08/22 00:56:29;;;;;;;0.60;0.30;;;;;;;;;;4163046;28;20111;-41
2022/08/22 00:58:54;;;;;;;0.80;0.50;;;;;;;;;;4164561;28;20053;-40
2022/08/22 01:01:00;;;;;;;0.35;0.25;;;;;;;;;;4161717;28;20065;-40
2022/08/22 01:03:16;;;;;;;0.30;0.20;;;;;;;;;;4162542;28;20158;-40
2022/08/22 01:05:45;;;;;;;0.63;0.30;;;;;;;;;;4164746;28;20099;-40
2022/08/22 01:08:14;;;;;;;0.35;0.20;;;;;;;;;;4164382;28;20053;-41
2022/08/22 01:10:34;;;;;;;0.40;0.20;;;;;;;;;;4164842;28;20057;-40
2022/08/22 01:13:14;;;;;;;1.02;0.30;;;;;;;;;;4163015;28;20353;-40
2022/08/22 01:15:23;;;;;;;0.20;0.20;;;;;;;;;;4163252;28;20049;-40
2022/08/22 01:18:02;;;;;;;0.30;0.30;;;;;;;;;;4147130;28;20390;-40
2022/08/22 01:20:28;;;;;;;0.32;0.32;;;;;;;;;;4164693;28;20050;-41
2022/08/22 01:22:29;;;;;;;0.65;0.40;;;;;;;;;;4163208;28;20056;-40
2022/08/22 01:25:16;;;;;;;0.20;0.20;;;;;;;;;;4164897;28;20059;-40
2022/08/22 01:27:31;;;;;;;0.25;0.20;;;;;;;;;;4164415;28;20107;-41
2022/08/22 01:29:44;;;;;;;0.23;0.20;;;;;;;;;;4164534;28;20065;-40
2022/08/22 01:32:11;;;;;;;0.30;0.20;;;;;;;;;;4164378;28;20053;-41
2022/08/22 01:34:43;;;;;;;0.35;0.30;;;;;;;;;;4163050;28;20144;-41
2022/08/22 01:37:00;;;;;;;0.85;0.40;;;;;;;;;;4163090;28;20099;-40
2022/08/22 01:39:06;;;;;;;0.32;0.20;;;;;;;;;;4164416;28;20409;-41
2022/08/22 01:41:21;;;;;;;0.95;0.30;;;;;;;;;;4162884;28;20107;-41
2022/08/22 01:43:37;;;;;;;0.50;0.20;;;;;;;;;;4162620;28;20108;-41
2022/08/22 01:45:47;;;;;;;0.57;0.30;;;;;;;;;;4164170;28;20046;-42
2022/08/22 01:47:54;;;;;;;0.20;0.20;;;;;;;;;;4164186;28;20125;-41
2022/08/22 01:50:02;;;;;;;0.30;0.15;;;;;;;;;;4164326;28;20061;-41
2022/08/22 01:52:28;;;;;;;0.52;0.40;;;;;;;;;;4162953;28;20060;-41
2022/08/22 01:54:34;;;;;;;0.30;0.20;;;;;;;;;;4162977;28;20073;-41
2022/08/22 01:56:41;;;;;;;0.20;0.15;;;;;;;;;;4162689;28;20566;-41
2022/08/22 01:59:07;;;;;;;0.30;0.30;;;;;;;;;;4162269;28;20053;-42
2022/08/22 02:01:29;;;;;;;0.20;0.20;;;;;;;;;;4145689;28;20486;-41
2022/08/22 02:03:41;;;;;;;0.38;0.38;;;;;;;;;;4163816;28;20400;-41
2022/08/22 02:05:52;;;;;;;0.40;0.40;;;;;;;;;;4162445;28;20171;-41
2022/08/22 02:08:04;;;;;;;0.10;0.10;;;;;;;;;;4163807;28;20053;-41
2022/08/22 02:10:20;;;;;;;0.38;0.20;;;;;;;;;;4163845;28;20133;-40
2022/08/22 02:12:30;;;;;;;0.88;0.25;;;;;;;;;;4161906;28;20076;-40
2022/08/22 02:14:35;;;;;;;;;;;;;;;;;;4164083;28;20060;-40
2022/08/22 02:16:42;;;;;;;1.33;0.30;;;;;;;;;;4163702;28;19925;-40
2022/08/22 02:18:58;;;;;;;0.40;0.10;;;;;;;;;;4163662;28;20546;-40
2022/08/22 02:21:14;;;;;;;0.30;0.20;;;;;;;;;;4163660;28;20050;-41
2022/08/22 02:23:52;;;;;;;0.40;0.30;;;;;;;;;;4162298;28;20117;-40
2022/08/22 02:26:02;;;;;;;0.47;0.30;;;;;;;;;;4162194;28;20050;-40
2022/08/22 02:28:11;;;;;;;;;;;;;;;;;;4163631;28;20480;-40
2022/08/22 02:30:16;;;;;;;0.30;0.30;;;;;;;;;;4162016;28;19925;-40
2022/08/22 02:32:20;;;;;;;0.50;0.38;;;;;;;;;;4161827;28;20049;-40
2022/08/22 02:34:48;;;;;;;0.55;0.40;;;;;;;;;;4161681;28;20073;-40
2022/08/22 02:37:13;;;;;;;0.75;0.32;;;;;;;;;;4161698;28;20057;-40
2022/08/22 02:39:57;;;;;;;0.32;0.32;;;;;;;;;;4141703;28;20119;-40
2022/08/22 02:42:10;;;;;;;0.20;0.20;;;;;;;;;;4160156;28;20386;-41
2022/08/22 02:44:28;;;;;;;0.43;0.30;;;;;;;;;;4161322;28;20128;-41
2022/08/22 02:46:50;;;;;;;0.45;0.30;;;;;;;;;;4158861;28;20513;-40
2022/08/22 02:49:07;;;;;;;0.30;0.20;;;;;;;;;;4143567;28;20053;-40
2022/08/22 02:51:40;;;;;;;0.30;0.30;;;;;;;;;;4144738;28;20080;-40
2022/08/22 02:53:54;;;;;;;0.32;0.32;;;;;;;;;;4143734;28;20135;-40
2022/08/22 02:56:00;;;;;;;0.85;0.20;;;;;;;;;;4143584;28;20057;-40
2022/08/22 02:58:22;;;;;;;0.65;0.30;;;;;;;;;;4144324;28;20099;-41
2022/08/22 03:00:26;;;;;;;0.20;0.20;;;;;;;;;;4143254;28;20092;-40
2022/08/22 03:02:34;;;;;;;0.30;0.30;;;;;;;;;;4144681;28;20058;-41
2022/08/22 03:04:38;;;;;;;0.40;0.35;;;;;;;;;;4144321;28;20462;-41
2022/08/22 03:06:45;;;;;;;0.47;0.30;;;;;;;;;;4143878;28;20139;-40
2022/08/22 03:09:07;;;;;;;0.20;0.20;;;;;;;;;;4126562;28;20113;-40
2022/08/22 03:11:21;;;;;;;0.40;0.20;;;;;;;;;;4144515;28;20104;-40
2022/08/22 03:13:43;;;;;;;0.22;0.20;;;;;;;;;;4126939;28;20058;-40
2022/08/22 03:15:48;;;;;;;0.40;0.30;;;;;;;;;;4143411;28;20089;-41
2022/08/22 03:17:58;;;;;;;0.40;0.40;;;;;;;;;;4143486;28;20108;-40
2022/08/22 03:20:06;;;;;;;0.20;0.20;;;;;;;;;;4144976;28;20061;-41
2022/08/22 03:22:36;;;;;;;0.30;0.17;;;;;;;;;;4144283;28;20104;-41
2022/08/22 03:24:47;;;;;;;0.28;0.20;;;;;;;;;;4143729;28;20054;-40
2022/08/22 03:26:51;;;;;;;0.40;0.30;;;;;;;;;;4142815;28;20101;-40
2022/08/22 03:29:02;;;;;;;0.32;0.20;;;;;;;;;;4150979;28;20057;-40
2022/08/22 03:31:14;;;;;;;0.35;0.20;;;;;;;;;;4159389;28;20413;-41
2022/08/22 03:33:22;;;;;;;0.30;0.20;;;;;;;;;;4159480;28;20083;-40
2022/08/22 03:35:35;;;;;;;0.25;0.20;;;;;;;;;;4160215;28;20045;-41
2022/08/22 03:37:36;;;;;;;0.20;0.20;;;;;;;;;;4162473;28;20084;-40
2022/08/22 03:39:50;;;;;;;0.43;0.20;;;;;;;;;;4162716;28;20061;-40
2022/08/22 03:42:02;;;;;;;0.20;0.20;;;;;;;;;;4162962;28;20049;-40
2022/08/22 03:44:35;;;;;;;0.20;0.20;;;;;;;;;;4160830;28;20456;-40
2022/08/22 03:46:55;;;;;;;0.30;0.30;;;;;;;;;;4161349;28;20053;-40
2022/08/22 03:49:00;;;;;;;0.20;0.20;;;;;;;;;;4162653;28;20127;-40
2022/08/22 03:51:12;;;;;;;0.40;0.20;;;;;;;;;;4161312;28;20057;-40
2022/08/22 03:53:44;;;;;;;0.20;0.20;;;;;;;;;;4145194;28;20058;-41
2022/08/22 03:56:04;;;;;;;0.75;0.40;;;;;;;;;;4162594;28;20111;-40
2022/08/22 03:58:23;;;;;;;0.55;0.35;;;;;;;;;;4162005;28;20118;-40
2022/08/22 04:01:02;;;;;;;0.90;0.20;;;;;;;;;;4161406;28;20061;-40
2022/08/22 04:03:32;;;;;;;0.25;0.20;;;;;;;;;;4162413;28;20534;-40
2022/08/22 04:05:53;;;;;;;0.32;0.32;;;;;;;;;;4160817;28;20108;-40
2022/08/22 04:08:18;;;;;;;0.68;0.30;;;;;;;;;;4162693;28;20072;-40
2022/08/22 04:10:52;;;;;;;0.95;0.40;;;;;;;;;;4160956;28;20108;-40
2022/08/22 04:13:08;;;;;;;0.40;0.22;;;;;;;;;;4160368;28;20119;-40
2022/08/22 04:15:37;;;;;;;0.40;0.30;;;;;;;;;;4162318;28;20057;-40
2022/08/22 04:18:00;;;;;;;0.30;0.30;;;;;;;;;;4162522;28;20111;-41
2022/08/22 04:20:39;;;;;;;0.40;0.40;;;;;;;;;;4162546;28;20060;-40
2022/08/22 04:23:02;;;;;;;0.35;0.35;;;;;;;;;;4153218;28;20399;-41
2022/08/22 04:25:22;;;;;;;0.52;0.40;;;;;;;;;;4160991;28;20080;-40
2022/08/22 04:27:29;;;;;;;0.20;0.20;;;;;;;;;;4160555;28;20511;-40
2022/08/22 04:29:37;;;;;;;0.28;0.28;;;;;;;;;;4160040;28;20143;-40
2022/08/22 04:31:46;;;;;;;0.40;0.30;;;;;;;;;;4162277;28;20515;-40
2022/08/22 04:33:50;;;;;;;0.40;0.30;;;;;;;;;;4162340;28;20054;-40
2022/08/22 04:36:03;;;;;;;0.40;0.40;;;;;;;;;;4161014;28;20353;-40
2022/08/22 04:38:10;;;;;;;0.90;0.30;;;;;;;;;;4161367;28;20088;-40
2022/08/22 04:40:15;;;;;;;0.50;0.30;;;;;;;;;;4165095;28;20112;-40
2022/08/22 04:42:31;;;;;;;0.38;0.38;;;;;;;;;;4164734;28;20075;-41
2022/08/22 04:44:55;;;;;;;0.30;0.30;;;;;;;;;;4163810;28;20061;-41
2022/08/22 04:47:01;;;;;;;0.60;0.40;;;;;;;;;;4163737;28;20049;-41
2022/08/22 04:49:13;;;;;;;0.60;0.47;;;;;;;;;;4147122;28;20057;-40
2022/08/22 04:51:21;;;;;;;0.70;0.40;;;;;;;;;;4163870;28;20057;-41
2022/08/22 04:53:51;;;;;;;0.38;0.32;;;;;;;;;;4163487;28;20079;-40
2022/08/22 04:56:16;;;;;;;0.32;0.30;;;;;;;;;;4163714;28;20492;-40
2022/08/22 04:58:28;;;;;;;0.30;0.30;;;;;;;;;;4164834;28;20065;-40
2022/08/22 05:00:50;;;;;;;0.52;0.40;;;;;;;;;;4160130;28;20062;-40
2022/08/22 05:02:55;;;;;;;0.88;0.32;;;;;;;;;;4161286;28;20057;-41
2022/08/22 05:05:04;;;;;;;1.33;0.70;;;;;;;;;;4161393;28;20107;-40
2022/08/22 05:07:21;;;;;;;0.52;0.35;;;;;;;;;;4161628;28;20136;-41
2022/08/22 05:09:28;;;;;;;1.40;0.60;;;;;;;;;;4161321;28;20060;-41
2022/08/22 05:11:30;;;;;;;0.32;0.30;;;;;;;;;;4146572;28;20169;-40
2022/08/22 05:13:47;;;;;;;1.27;0.50;;;;;;;;;;4160522;28;20061;-40
2022/08/22 05:15:58;;;;;;;0.47;0.35;;;;;;;;;;4160764;28;20517;-40
2022/08/22 05:18:08;;;;;;;0.80;0.40;;;;;;;;;;4144845;28;20057;-40
2022/08/22 05:20:13;;;;;;;;;;;;;;;;;;4147609;28;20057;-40
2022/08/22 05:22:24;;;;;;;0.40;0.40;;;;;;;;;;4152010;28;19948;-40
2022/08/22 05:24:33;;;;;;;0.40;0.30;;;;;;;;;;4143074;28;20389;-40
2022/08/22 05:26:47;;;;;;;0.68;0.30;;;;;;;;;;4172305;28;20068;-41
2022/08/22 05:28:59;;;;;;;1.13;0.30;;;;;;;;;;4157006;28;20111;-40
2022/08/22 05:31:13;;;;;;;0.85;0.47;;;;;;;;;;4171671;28;20487;-40
2022/08/22 05:33:29;;;;;;;0.52;0.40;;;;;;;;;;4170194;28;20421;-40
2022/08/22 05:35:36;;;;;;;0.70;0.40;;;;;;;;;;4158869;28;20041;-41
2022/08/22 05:37:47;;;;;;;0.82;0.40;;;;;;;;;;4156196;28;20061;-41
2022/08/22 05:39:52;;;;;;;0.30;0.30;;;;;;;;;;4155954;28;20546;-42
2022/08/22 05:41:57;;;;;;;0.52;0.40;;;;;;;;;;4139779;28;20065;-40
2022/08/22 05:43:58;;;;;;;0.68;0.30;;;;;;;;;;4149380;28;20061;-41
2022/08/22 05:46:00;;;;;;;1.85;0.40;;;;;;;;;;4145337;28;20123;-41
2022/08/22 05:48:08;;;;;;;0.80;0.30;;;;;;;;;;4154087;28;20049;-41
2022/08/22 05:50:31;;;;;;;1.02;0.40;;;;;;;;;;4154639;28;20433;-41
2022/08/22 05:52:55;;;;;;;0.75;0.38;;;;;;;;;;4150465;28;20062;-39
2022/08/22 05:55:09;;;;;;;0.50;0.30;;;;;;;;;;4154632;28;20061;-40
2022/08/22 05:57:22;;;;;;;0.47;0.30;;;;;;;;;;4155085;28;20046;-40
2022/08/22 05:59:27;;;;;;;0.57;0.30;;;;;;;;;;4151884;28;20045;-41
2022/08/22 06:01:32;;;;;;;0.63;0.40;;;;;;;;;;4139956;28;20170;-39
2022/08/22 06:03:38;;;;;;;0.75;0.30;;;;;;;;;;4135222;28;20080;-39
2022/08/22 06:05:42;;;;;;;1.02;0.30;;;;;;;;;;4143284;28;20049;-38
2022/08/22 06:07:46;;;;;;;1.73;0.40;;;;;;;;;;4141923;28;20119;-39
2022/08/22 06:09:47;;;;;;;0.82;0.60;;;;;;;;;;4140323;28;20057;-39
2022/08/22 06:11:57;;;;;;;1.08;0.25;;;;;;;;;;4132087;28;20366;-40
2022/08/22 06:14:14;;;;;;;2.35;0.30;;;;;;;;;;4112281;28;20672;-39
2022/08/22 06:16:23;;;;;;;2.83;0.40;;;;;;;;;;4140512;28;20045;-39
2022/08/22 06:18:26;;;;;;;1.33;0.30;;;;;;;;;;4131159;28;20166;-40
2022/08/22 06:20:47;;;;;;;2.97;0.40;;;;;;;;;;4132359;28;20356;-41
2022/08/22 06:22:51;;;;;;;0.52;0.40;;;;;;;;;;4131140;28;21262;-40
2022/08/22 06:24:56;;;;;;;3.50;0.50;;;;;;;;;;4136078;28;20072;-39
2022/08/22 06:27:02;;;;;;;1.10;0.40;;;;;;;;;;4136411;28;20386;-40
2022/08/22 06:29:06;;;;;;;0.80;0.40;;;;;;;;;;4131688;28;20086;-40
2022/08/22 06:31:13;;;;;;;0.93;0.40;;;;;;;;;;4128796;28;20126;-39
2022/08/22 06:33:22;;;;;;;1.15;0.50;;;;;;;;;;4122047;28;20498;-39
2022/08/22 06:36:29;;;;;;;2.15;0.50;;;;;;;;;;4149490;28;20063;-39
2022/08/22 06:37:55;;;;;;;0.70;0.35;;;;;;;;;;4135961;28;20060;-39
2022/08/22 06:39:57;;;;;;;0.60;0.30;;;;;;;;;;4126158;28;20162;-40
2022/08/22 06:42:03;;;;;;;1.10;0.55;;;;;;;;;;4128688;28;20100;-40
2022/08/22 06:44:06;;;;;;;1.27;0.30;;;;;;;;;;4132368;28;20115;-39
2022/08/22 06:46:08;;;;;;;1.95;0.55;;;;;;;;;;4138957;28;20080;-39
2022/08/22 06:48:16;;;;;;;0.88;0.45;;;;;;;;;;4139121;28;20847;-39
2022/08/22 06:50:22;;;;;;;0.63;0.30;;;;;;;;;;4128783;28;20061;-39
2022/08/22 06:52:24;;;;;;;1.60;0.52;;;;;;;;;;4130370;28;20060;-40
2022/08/22 06:54:30;;;;;;;1.58;0.40;;;;;;;;;;4135136;28;20061;-39
2022/08/22 06:56:38;;;;;;;0.63;0.32;;;;;;;;;;4125740;28;20041;-41
2022/08/22 06:58:45;;;;;;;3.50;0.60;;;;;;;;;;4132794;28;20127;-39
2022/08/22 07:00:52;;;;;;;3.33;0.40;;;;;;;;;;4098339;28;20144;-39
2022/08/22 07:03:05;;;;;;;1.73;0.22;;;;;;;;;;4136904;28;20462;-40
2022/08/22 07:05:14;;;;;;;1.90;0.50;;;;;;;;;;4116181;28;20207;-40
2022/08/22 07:07:17;;;;;;;2.10;0.43;;;;;;;;;;4108558;28;20528;-41
2022/08/22 07:09:25;;;;;;;1.60;0.50;;;;;;;;;;4107357;28;20562;-41
2022/08/22 07:11:29;;;;;;;0.70;0.32;;;;;;;;;;4111826;28;20142;-40
2022/08/22 07:13:31;;;;;;;5.75;0.50;;;;;;;;;;4094486;28;20064;-44
2022/08/22 07:15:40;;;;;;;1.33;0.43;;;;;;;;;;4122825;28;20504;-39
2022/08/22 07:17:50;;;;;;;1.38;0.30;;;;;;;;;;4119530;28;20590;-39
2022/08/22 07:20:00;;;;;;;2.28;0.70;;;;;;;;;;4103174;28;20599;-40
2022/08/22 07:22:31;;;;;;;1.40;0.30;;;;;;;;;;4121648;28;21077;-39
2022/08/22 07:24:32;;;;;;;2.60;0.60;;;;;;;;;;4129382;28;21156;-39
2022/08/22 07:27:07;;;;;;;0.85;0.40;;;;;;;;;;4127198;28;20053;-40
2022/08/22 07:29:21;;;;;;;2.88;0.40;;;;;;;;;;4105820;28;20576;-41
2022/08/22 07:31:33;;;;;;;0.43;0.30;;;;;;;;;;4122051;28;20107;-42
2022/08/22 07:33:45;;;;;;;0.85;0.38;;;;;;;;;;4128083;28;23044;-41
2022/08/22 07:35:49;;;;;;;0.82;0.60;;;;;;;;;;4120483;28;20049;-41
2022/08/22 07:37:59;;;;;;;1.88;0.50;;;;;;;;;;4128155;28;20485;-40
2022/08/22 07:40:03;;;;;;;;;;;;;;;;;;4127465;28;20507;-40
2022/08/22 07:42:10;;;;;;;1.13;0.47;;;;;;;;;;4126348;28;19932;-40
2022/08/22 07:44:15;;;;;;;0.85;0.45;;;;;;;;;;4134491;28;20061;-40
2022/08/22 07:46:27;;;;;;;1.80;0.63;;;;;;;;;;4126245;28;20060;-40
2022/08/22 07:48:36;;;;;;;1.13;0.40;;;;;;;;;;4123270;28;20112;-40
2022/08/22 07:50:48;;;;;;;1.08;0.40;;;;;;;;;;4127806;28;20062;-40
2022/08/22 07:52:49;;;;;;;2.35;0.30;;;;;;;;;;4109262;28;20076;-39
2022/08/22 07:54:57;;;;;;;1.27;0.35;;;;;;;;;;4130021;28;20116;-40
2022/08/22 07:57:03;;;;;;;0.95;0.50;;;;;;;;;;4125351;28;20149;-40
2022/08/22 07:59:09;;;;;;;0.68;0.35;;;;;;;;;;4091955;28;20069;-42
2022/08/22 08:01:16;;;;;;;1.27;0.40;;;;;;;;;;4098974;28;20549;-42
2022/08/22 08:03:21;;;;;;;1.45;0.40;;;;;;;;;;4106526;28;20686;-41
2022/08/22 08:05:23;;;;;;;0.73;0.32;;;;;;;;;;4127688;28;20065;-40
2022/08/22 08:07:26;;;;;;;1.83;0.60;;;;;;;;;;4121631;28;20079;-40
2022/08/22 08:09:33;;;;;;;0.98;0.40;;;;;;;;;;4124848;28;20382;-41
2022/08/22 08:11:39;;;;;;;3.03;0.57;;;;;;;;;;4122942;28;20095;-41
2022/08/22 08:13:42;;;;;;;0.60;0.47;;;;;;;;;;4147010;28;20057;-41
2022/08/22 08:15:47;;;;;;;1.15;0.43;;;;;;;;;;4130466;28;20143;-40
2022/08/22 08:17:53;;;;;;;1.42;0.40;;;;;;;;;;4122711;28;20523;-39
2022/08/22 08:19:55;;;;;;;2.20;0.57;;;;;;;;;;4129906;28;20053;-42
2022/08/22 08:21:57;;;;;;;1.85;0.40;;;;;;;;;;4133685;28;20088;-40
2022/08/22 08:23:59;;;;;;;1.90;0.50;;;;;;;;;;4128177;28;20060;-42
2022/08/22 08:26:08;;;;;;;1.50;1.00;;;;;;;;;;4150242;28;20057;-40
2022/08/22 08:30:38;;;;;;;1.75;0.50;;;;;;;;;;4133636;28;20057;-39
2022/08/22 08:32:41;;;;;;;1.20;0.52;;;;;;;;;;4130539;28;20206;-40
2022/08/22 08:34:43;;;;;;;0.90;0.35;;;;;;;;;;4130142;28;20599;-40
2022/08/22 08:36:51;;;;;;;0.90;0.40;;;;;;;;;;4136416;28;20057;-41
2022/08/22 08:39:02;;;;;;;2.05;0.70;;;;;;;;;;4131441;28;20060;-39
2022/08/22 08:41:23;;;;;;;1.05;0.20;;;;;;;;;;4124244;28;20057;-40
2022/08/22 08:43:43;;;;;;;1.27;0.43;;;;;;;;;;4131011;28;20126;-40
2022/08/22 08:46:06;;;;;;;1.75;0.60;;;;;;;;;;4131442;28;20498;-39
2022/08/22 08:48:45;;;;;;;1.02;0.50;;;;;;;;;;4131655;28;20061;-43
2022/08/22 08:51:05;;;;;;;3.55;0.40;;;;;;;;;;4135508;28;20401;-42
2022/08/22 08:53:31;;;;;;;1.83;0.50;;;;;;;;;;4129496;28;20939;-40
2022/08/22 08:55:57;;;;;;;0.50;0.30;;;;;;;;;;4114351;28;20337;-44
2022/08/22 08:58:33;;;;;;;1.27;0.40;;;;;;;;;;4123198;28;20053;-40
2022/08/22 09:00:44;;;;;;;2.53;0.50;;;;;;;;;;4121028;28;20679;-41
2022/08/22 09:02:58;;;;;;;1.85;0.50;;;;;;;;;;4108804;28;20061;-41
2022/08/22 09:05:20;;;;;;;1.27;0.40;;;;;;;;;;4115519;28;20417;-40
2022/08/22 09:07:41;;;;;;;1.17;0.30;;;;;;;;;;4122307;28;20054;-40
2022/08/22 09:09:49;;;;;;;1.40;0.50;;;;;;;;;;4125002;28;20366;-41
2022/08/22 09:12:25;;;;;;;1.08;0.40;;;;;;;;;;4123756;28;20163;-41
2022/08/22 09:14:39;;;;;;;2.53;0.40;;;;;;;;;;4129995;28;20096;-39
2022/08/22 09:16:50;;;;;;;1.08;0.65;;;;;;;;;;4127994;28;20661;-42
2022/08/22 09:19:13;;;;;;;0.75;0.47;;;;;;;;;;4125372;28;20053;-41
2022/08/22 09:21:33;;;;;;;1.92;0.40;;;;;;;;;;4126122;28;20111;-40
2022/08/22 09:24:03;;;;;;;1.23;0.20;;;;;;;;;;4142953;28;20110;-41
2022/08/22 09:26:14;;;;;;;2.78;0.50;;;;;;;;;;4123772;28;20049;-40
2022/08/22 09:28:29;;;;;;;1.30;0.50;;;;;;;;;;4134590;28;20057;-40
2022/08/22 09:30:47;;;;;;;3.33;0.30;;;;;;;;;;4142092;28;20722;-40
2022/08/22 09:32:59;;;;;;;0.57;0.30;;;;;;;;;;4123415;28;20061;-40
2022/08/22 09:35:51;;;;;;;0.73;0.40;;;;;;;;;;4121811;28;20154;-41
2022/08/22 09:38:24;;;;;;;1.15;0.52;;;;;;;;;;4101147;28;20049;-40
2022/08/22 09:40:30;;;;;;;0.73;0.43;;;;;;;;;;4120147;28;20103;-39
2022/08/22 09:42:40;;;;;;;4.30;0.57;;;;;;;;;;4134827;28;20746;-40
2022/08/22 09:44:51;;;;;;;1.00;0.40;;;;;;;;;;4137049;28;20057;-40
2022/08/22 09:46:57;;;;;;;0.60;0.20;;;;;;;;;;4121745;28;20361;-40
2022/08/22 09:49:08;;;;;;;1.77;0.50;;;;;;;;;;4134099;28;20730;-40
2022/08/22 09:51:23;;;;;;;3.50;0.40;;;;;;;;;;4131332;28;20572;-39
2022/08/22 09:53:52;;;;;;;1.65;0.80;;;;;;;;;;4133881;28;20061;-39
2022/08/22 09:56:04;;;;;;;1.48;0.35;;;;;;;;;;4136427;28;20135;-39
2022/08/22 09:58:24;;;;;;;1.65;0.55;;;;;;;;;;4134586;28;20791;-41
2022/08/22 10:00:34;;;;;;;0.70;0.30;;;;;;;;;;4136922;28;20551;-40
2022/08/22 10:02:57;;;;;;;0.45;0.28;;;;;;;;;;4144165;28;20138;-40
2022/08/22 10:05:08;;;;;;;0.70;0.30;;;;;;;;;;4132335;28;20057;-39
2022/08/22 10:07:25;;;;;;;0.55;0.40;;;;;;;;;;4132569;28;20041;-41
2022/08/22 10:09:34;;;;;;;1.70;0.30;;;;;;;;;;4135867;28;20076;-41
2022/08/22 10:11:42;;;;;;;1.55;0.30;;;;;;;;;;4132506;28;20572;-39
2022/08/22 10:13:49;;;;;;;0.88;0.22;;;;;;;;;;4138180;28;20519;-40
2022/08/22 10:16:19;;;;;;;1.30;0.30;;;;;;;;;;4142557;28;20053;-39
2022/08/22 10:18:46;;;;;;;0.28;0.28;;;;;;;;;;4120664;28;20053;-40
2022/08/22 10:21:02;;;;;;;1.85;0.20;;;;;;;;;;4133949;28;20061;-39
2022/08/22 10:23:07;;;;;;;0.60;0.30;;;;;;;;;;4131947;28;20675;-40
2022/08/22 10:25:37;;;;;;;0.77;0.28;;;;;;;;;;4137223;28;20053;-40
2022/08/22 10:28:08;;;;;;;2.53;0.30;;;;;;;;;;4143298;28;20052;-39
2022/08/22 10:30:21;;;;;;;0.30;0.20;;;;;;;;;;4128957;28;20062;-40
2022/08/22 10:32:33;;;;;;;0.82;0.32;;;;;;;;;;4126389;28;21141;-41
2022/08/22 10:34:37;;;;;;;4.25;0.60;;;;;;;;;;4135977;28;20586;-40
2022/08/22 10:37:15;;;;;;;2.28;0.25;;;;;;;;;;4133244;28;20565;-40
2022/08/22 10:39:24;;;;;;;1.20;0.30;;;;;;;;;;4131538;28;20058;-40
2022/08/22 10:41:52;;;;;;;1.17;0.30;;;;;;;;;;4140379;28;20084;-41
2022/08/22 10:44:17;;;;;;;0.65;0.30;;;;;;;;;;4132220;28;20397;-40
2022/08/22 10:46:40;;;;;;;0.57;0.30;;;;;;;;;;4132334;28;20156;-40
2022/08/22 10:48:59;;;;;;;2.53;0.38;;;;;;;;;;4143516;28;20065;-41
2022/08/22 10:51:08;;;;;;;1.53;0.60;;;;;;;;;;4144781;28;20555;-40
2022/08/22 10:53:32;;;;;;;0.40;0.30;;;;;;;;;;4142816;28;20060;-40
2022/08/22 10:55:34;;;;;;;0.73;0.20;;;;;;;;;;4137311;28;20115;-40
2022/08/22 10:57:50;;;;;;;1.30;0.30;;;;;;;;;;4139699;28;20646;-41
2022/08/22 11:00:09;;;;;;;2.90;0.35;;;;;;;;;;4132180;28;20119;-42
2022/08/22 11:02:26;;;;;;;0.43;0.28;;;;;;;;;;4131396;28;20057;-41
2022/08/22 11:04:46;;;;;;;0.73;0.20;;;;;;;;;;4134560;28;20106;-41
2022/08/22 11:07:03;;;;;;;1.42;0.25;;;;;;;;;;4130464;28;20053;-41
2022/08/22 11:09:12;;;;;;;1.05;0.30;;;;;;;;;;4157665;28;20106;-41
2022/08/22 11:11:22;;;;;;;1.13;0.20;;;;;;;;;;4131680;28;20779;-42
2022/08/22 11:13:42;;;;;;;1.05;0.30;;;;;;;;;;4147182;28;20061;-42
2022/08/22 11:16:10;;;;;;;0.88;0.20;;;;;;;;;;4148676;28;20213;-42
2022/08/22 11:18:47;;;;;;;1.05;0.32;;;;;;;;;;4134975;28;20053;-41
2022/08/22 11:21:05;;;;;;;1.00;0.30;;;;;;;;;;4139343;28;20057;-41
2022/08/22 11:23:18;;;;;;;0.68;0.20;;;;;;;;;;4143861;28;20076;-41
2022/08/22 11:25:29;;;;;;;0.70;0.40;;;;;;;;;;4141448;28;20057;-40
2022/08/22 11:27:49;;;;;;;1.50;0.38;;;;;;;;;;4134766;28;20053;-40
2022/08/22 11:30:09;;;;;;;0.68;0.30;;;;;;;;;;4139830;28;20102;-40
2022/08/22 11:32:16;;;;;;;0.75;0.20;;;;;;;;;;4138556;28;20669;-40
2022/08/22 11:34:55;;;;;;;1.45;0.40;;;;;;;;;;4144769;28;20127;-40
2022/08/22 11:37:07;;;;;;;0.90;0.30;;;;;;;;;;4155443;28;20453;-41
2022/08/22 11:39:14;;;;;;;0.88;0.30;;;;;;;;;;4137720;28;20049;-41
2022/08/22 11:41:26;;;;;;;0.77;0.40;;;;;;;;;;4142447;28;20499;-40
2022/08/22 11:43:30;;;;;;;0.68;0.20;;;;;;;;;;4135316;28;21482;-40
2022/08/22 11:45:38;;;;;;;1.02;0.25;;;;;;;;;;4133748;28;20151;-40
2022/08/22 11:47:47;;;;;;;0.70;0.32;;;;;;;;;;4137706;28;20087;-40
2022/08/22 11:49:55;;;;;;;0.30;0.20;;;;;;;;;;4129621;28;20100;-40
2022/08/22 11:52:11;;;;;;;2.83;0.40;;;;;;;;;;4146987;28;20061;-41
2022/08/22 11:54:37;;;;;;;1.17;0.30;;;;;;;;;;4137716;28;20119;-40
2022/08/22 11:56:48;;;;;;;0.57;0.30;;;;;;;;;;4117182;28;21254;-40
2022/08/22 11:59:00;;;;;;;0.77;0.30;;;;;;;;;;4131889;28;20110;-40
2022/08/22 12:01:08;;;;;;;1.08;0.38;;;;;;;;;;4135138;28;20107;-42
2022/08/22 12:03:40;;;;;;;2.03;0.30;;;;;;;;;;4143485;28;20406;-40
2022/08/22 12:05:45;;;;;;;0.68;0.20;;;;;;;;;;4139415;28;20053;-40
2022/08/22 12:07:54;;;;;;;1.85;0.38;;;;;;;;;;4137091;28;20448;-40
2022/08/22 12:10:13;;;;;;;0.40;0.20;;;;;;;;;;4143696;28;20061;-40
2022/08/22 12:12:20;;;;;;;0.45;0.30;;;;;;;;;;4157188;28;20187;-42
2022/08/22 12:14:40;;;;;;;1.08;0.30;;;;;;;;;;4139714;28;20135;-40
2022/08/22 12:17:01;;;;;;;1.17;0.40;;;;;;;;;;4142166;28;20103;-41
2022/08/22 12:19:17;;;;;;;0.57;0.28;;;;;;;;;;4147801;28;20346;-40
2022/08/22 12:21:44;;;;;;;1.95;0.30;;;;;;;;;;4145973;28;20061;-40
2022/08/22 12:23:56;;;;;;;0.60;0.20;;;;;;;;;;4124056;28;20072;-40
2022/08/22 12:26:45;;;;;;;0.47;0.10;;;;;;;;;;4145895;28;20452;-40
2022/08/22 12:29:37;;;;;;;0.77;0.20;;;;;;;;;;4133345;28;21156;-40
2022/08/22 12:31:45;;;;;;;0.98;0.30;;;;;;;;;;4132781;28;20525;-40
2022/08/22 12:33:47;;;;;;;0.47;0.20;;;;;;;;;;4137917;28;20088;-40
2022/08/22 12:36:23;;;;;;;0.63;0.20;;;;;;;;;;4149609;28;20115;-40
2022/08/22 12:38:27;;;;;;;2.00;0.20;;;;;;;;;;4150816;28;20460;-41
2022/08/22 12:41:13;;;;;;;0.70;0.30;;;;;;;;;;4151847;28;20068;-41
2022/08/22 12:43:24;;;;;;;0.60;0.15;;;;;;;;;;4109351;28;20054;-41
2022/08/22 12:45:25;;;;;;;3.22;0.20;;;;;;;;;;4127168;28;20061;-41
2022/08/22 12:48:04;;;;;;;0.85;0.20;;;;;;;;;;4143189;28;20057;-40
2022/08/22 12:50:24;;;;;;;0.60;0.30;;;;;;;;;;4148627;28;20500;-41
2022/08/22 12:52:53;;;;;;;0.85;0.40;;;;;;;;;;4150456;28;20532;-40
2022/08/22 12:55:16;;;;;;;1.60;0.30;;;;;;;;;;4143352;28;21320;-42
2022/08/22 12:57:18;;;;;;;0.75;0.22;;;;;;;;;;4120915;28;21713;-40
2022/08/22 12:59:23;;;;;;;0.13;0.10;;;;;;;;;;4149587;28;20096;-41
2022/08/22 13:01:26;;;;;;;0.20;0.10;;;;;;;;;;4142415;28;20500;-42
2022/08/22 13:03:55;;;;;;;1.63;0.50;;;;;;;;;;4145223;28;20104;-41
2022/08/22 13:05:57;;;;;;;;;;;;;;;;;;4151591;28;20425;-41
2022/08/22 13:08:02;;;;;;;1.10;0.30;;;;;;;;;;4154753;28;20388;-42
2022/08/22 13:10:22;;;;;;;0.30;0.20;;;;;;;;;;4150829;28;20077;-43
2022/08/22 13:12:33;;;;;;;1.45;0.25;;;;;;;;;;4148840;28;20519;-42
2022/08/22 13:14:35;;;;;;;0.77;0.30;;;;;;;;;;4145649;28;20393;-41
2022/08/22 13:16:42;;;;;;;0.40;0.17;;;;;;;;;;4148419;28;20069;-41
2022/08/22 13:18:51;;;;;;;0.45;0.30;;;;;;;;;;4147782;28;20734;-42
2022/08/22 13:20:55;;;;;;;0.40;0.22;;;;;;;;;;4152114;28;20053;-42
2022/08/22 13:22:58;;;;;;;0.63;0.20;;;;;;;;;;4149834;28;21101;-42
2022/08/22 13:25:03;;;;;;;1.52;0.20;;;;;;;;;;4165768;28;20131;-41
2022/08/22 13:27:16;;;;;;;1.15;0.30;;;;;;;;;;4146772;28;20076;-41
2022/08/22 13:29:24;;;;;;;0.30;0.20;;;;;;;;;;4125943;28;21559;-45
2022/08/22 13:31:37;;;;;;;0.65;0.10;;;;;;;;;;4143198;28;20215;-42
2022/08/22 13:33:45;;;;;;;1.85;0.30;;;;;;;;;;4153759;28;20049;-42